createdAt,value
2019-03-24T00:07:47.301Z,5419.2
2019-03-24T00:17:46.511Z,5419.2
2019-03-24T00:29:36.913Z,5419.2
2019-03-24T00:39:36.129Z,5419.2
2019-03-24T00:49:35.345Z,5419.2
2019-03-24T00:59:34.561Z,5419.2
2019-03-24T01:09:33.778Z,5419.2
2019-03-24T01:19:32.997Z,5419.2
2019-03-24T01:29:32.270Z,5419.2
2019-03-24T01:39:31.589Z,5419.2
2019-03-24T01:49:30.907Z,5419.2
2019-03-24T01:59:30.224Z,5419.2
2019-03-24T02:09:29.544Z,5419.2
2019-03-24T02:19:28.863Z,5419.2
2019-03-24T02:29:28.077Z,5419.2
2019-03-24T02:39:27.292Z,5419.2
2019-03-24T02:49:26.508Z,5419.2
2019-03-24T03:02:08.638Z,5419.2
2019-03-24T03:12:07.849Z,5419.2
2019-03-24T03:22:07.063Z,5419.5
2019-03-24T03:32:06.289Z,5419.6
2019-03-24T03:49:48.613Z,5419.2
2019-03-24T03:59:47.825Z,5419.2
2019-03-24T04:14:47.016Z,5419.2
2019-03-24T04:24:46.222Z,5419.2
2019-03-24T04:34:45.435Z,5419.2
2019-03-24T04:44:44.650Z,5419.4
2019-03-24T04:54:43.861Z,5419.5
2019-03-24T05:04:43.075Z,5419.5
2019-03-24T05:14:42.362Z,5419.5
2019-03-24T05:24:41.677Z,5419.6
2019-03-24T05:34:40.995Z,5419.8
2019-03-24T05:44:40.313Z,5420.1
2019-03-24T05:54:39.634Z,5420.3
2019-03-24T06:04:38.950Z,5420.5
2019-03-24T06:14:38.166Z,5420.8
2019-03-24T06:24:37.389Z,5421
2019-03-24T06:40:49.734Z,5420.8
2019-03-24T06:50:48.950Z,5421
2019-03-24T07:00:48.166Z,5421.3
2019-03-24T07:11:13.617Z,5420.8
2019-03-24T07:21:08.915Z,5421
2019-03-24T07:31:08.134Z,5421
2019-03-24T07:41:07.355Z,5421
2019-03-24T07:51:06.566Z,5421.3
2019-03-24T08:01:05.783Z,5421.5
2019-03-24T08:11:05.077Z,5421.8
2019-03-24T08:21:04.395Z,5422
2019-03-24T08:31:03.724Z,5422.1
2019-03-24T08:41:03.040Z,5422.3
2019-03-24T08:51:02.362Z,5422.5
2019-03-24T09:01:01.683Z,5422.5
2019-03-24T09:11:00.901Z,5422.7
2019-03-24T09:21:00.123Z,5423
2019-03-24T09:30:59.339Z,5423.2
2019-03-24T09:40:58.557Z,5423.2
2019-03-24T09:50:57.775Z,5423.3
2019-03-24T10:00:56.997Z,5423.6
2019-03-24T10:10:56.216Z,5423.8
2019-03-24T10:20:55.433Z,5423.8
2019-03-24T10:30:54.650Z,5423.8
2019-03-24T10:45:45.239Z,5423.6
2019-03-24T10:55:44.455Z,5423.7
2019-03-24T11:05:43.674Z,5423.9
2019-03-24T11:15:42.893Z,5424
2019-03-24T11:25:42.112Z,5424
2019-03-24T11:35:41.329Z,5424.3
2019-03-24T11:45:40.625Z,5424.4
2019-03-24T11:55:40.000Z,5424.5
2019-03-24T12:05:39.268Z,5424.7
2019-03-24T12:15:38.592Z,5424.8
2019-03-24T12:25:37.912Z,5424.8
2019-03-24T12:35:37.231Z,5424.8
2019-03-24T12:45:36.451Z,5424.8
2019-03-24T12:55:35.669Z,5424.8
2019-03-24T13:05:34.889Z,5424.8
2019-03-24T13:15:34.102Z,5424.8
2019-03-24T13:32:23.729Z,5424.8
2019-03-24T13:49:57.208Z,5424.8
2019-03-24T14:01:57.477Z,5424.8
2019-03-24T14:11:56.694Z,5425
2019-03-24T14:21:55.913Z,5425.1
2019-03-24T14:31:55.132Z,5425.1
2019-03-24T14:41:54.348Z,5425.1
2019-03-24T14:51:53.567Z,5425.1
2019-03-24T15:01:52.857Z,5425.1
2019-03-24T15:11:52.184Z,5425.1
2019-03-24T15:29:40.235Z,5425.1
2019-03-24T15:39:39.454Z,5425.1
2019-03-24T15:49:38.671Z,5425.1
2019-03-24T15:59:37.890Z,5425.1
2019-03-24T16:09:37.108Z,5425.1
2019-03-24T16:19:36.328Z,5425.1
2019-03-24T16:35:33.389Z,5425.1
2019-03-24T16:45:32.602Z,5425.1
2019-03-24T17:01:00.269Z,5425.1
2019-03-24T17:10:59.487Z,5425.1
2019-03-24T17:20:58.705Z,5425.3
2019-03-24T17:30:57.923Z,5425.6
2019-03-24T17:40:57.143Z,5425.8
2019-03-24T17:50:56.358Z,5425.9
2019-03-24T18:00:55.650Z,5425.9
2019-03-24T18:10:54.975Z,5425.9
2019-03-24T18:20:54.295Z,5425.9
2019-03-24T18:30:53.616Z,5425.9
2019-03-24T18:40:52.962Z,5426.1
2019-03-24T18:50:52.283Z,5426.4
2019-03-24T19:00:51.479Z,5426.6
2019-03-24T19:10:50.698Z,5426.9
2019-03-24T19:20:49.916Z,5427.1
2019-03-24T19:30:49.139Z,5427.4
2019-03-24T19:40:48.354Z,5427.6
2019-03-24T19:50:47.574Z,5427.7
2019-03-24T20:00:46.791Z,5427.9
2019-03-24T20:10:46.011Z,5428.2
2019-03-24T20:20:45.227Z,5428.4
2019-03-24T20:30:44.446Z,5428.7
2019-03-24T20:40:43.664Z,5428.9
2019-03-24T20:50:42.883Z,5429.2
2019-03-24T21:00:42.106Z,5429.4
2019-03-24T21:10:41.321Z,5429.6
2019-03-24T21:20:40.540Z,5429.9
2019-03-24T21:30:39.762Z,5429.9
2019-03-24T21:40:38.976Z,5429.9
2019-03-24T21:55:18.120Z,5429.2
2019-03-24T22:07:39.535Z,5429.2
2019-03-24T22:17:38.753Z,5429.2
2019-03-24T22:27:37.970Z,5429.2
2019-03-24T22:41:39.634Z,5429.2
2019-03-24T22:52:35.035Z,5429.2
2019-03-24T23:02:34.251Z,5429.2
2019-03-24T23:12:33.469Z,5429.2
2019-03-24T23:22:32.684Z,5429.2
2019-03-24T23:32:31.902Z,5429.2
2019-03-24T23:42:31.118Z,5429.2
2019-03-24T23:52:30.394Z,5429.2
